Upstream stations:
Downstream station:
SHEF ID: OKBO2 North Canadian River at Britton
STATION TYPE:
STAGE RIV-FLOW WTR-TEMP DIS-OXY CONDUCT BAT-LOAD
ft cfs F mg/l umho/cm volt
Ccp-Rev Ccp-Rev Ccp-Rev Ccp-Rev Ccp-Rev Ccp-Rev
(US/Central)
01/24 00:00 5.60 58 42.85 11.99 1019 12.54
01/24 01:00 5.58 54 42.53 11.54 1006 12.54
01/24 02:00 5.56 51 42.33 11.17 998 12.48
01/24 03:00 5.55 50 42.12 10.82 990 12.48
01/24 04:00 5.55 50 41.94 10.58 984 12.48
01/24 05:00 5.55 50 41.81 10.38 976 12.42
01/24 06:00 5.54 48 41.63 10.17 971 12.42
01/24 07:00 5.54 48 41.43 10.10 965 12.42
01/24 08:00 5.54 48 41.14 10.05 959 12.36
01/24 09:00 5.53 47 41.05 10.55 954 13.07
01/24 10:00 5.53 47 41.61 11.79 948 14.06
01/24 11:00 5.54 48 43.20 12.91 942 14.24
01/24 12:00 5.49 40 45.32 13.90 938 13.71
01/24 13:00 5.54 48 47.41 14.83 935 13.65
01/24 14:00 5.52 45 49.30 15.61 937 13.53
01/24 15:00 5.54 48 50.88 16.05 922 13.53
01/24 16:00 5.58 54 51.75 16.51 928 13.42
01/24 17:00 5.59 56 51.76 16.43 932 13.48
01/24 18:00 5.60 58 51.12 15.55 918 13.24
01/24 19:00 5.61 59 50.36 14.57 934 12.95
01/24 20:00 5.62 61 49.59 13.68 948 12.71
01/24 21:00 5.62 61 48.70 12.95 951 12.65
01/24 22:00 5.61 59 47.77 12.30 944 12.65
01/24 23:00 5.59 56 47.03 11.73 959 12.60